createdAt,value
2023-04-23T00:04:51.750Z,7.10
2023-04-23T00:14:39.944Z,7.18
2023-04-23T00:19:33.365Z,7.53
2023-04-23T00:24:26.604Z,6.95
2023-04-23T00:29:19.792Z,7.95
2023-04-23T00:34:14.344Z,8.07
2023-04-23T00:39:07.586Z,7.60
2023-04-23T00:44:01.865Z,7.00
2023-04-23T00:48:56.123Z,6.80
2023-04-23T00:53:50.614Z,7.38
2023-04-23T00:58:43.995Z,7.10
2023-04-23T01:03:38.761Z,7.22
2023-04-23T01:08:33.709Z,7.35
2023-04-23T01:13:29.910Z,8.02
2023-04-23T01:18:24.432Z,8.02
2023-04-23T01:23:19.097Z,8.50
2023-04-23T01:28:13.154Z,8.20
2023-04-23T01:33:07.426Z,8.18
2023-04-23T01:38:03.963Z,8.15
2023-04-23T01:42:59.425Z,8.48
2023-04-23T01:47:52.964Z,9.02
2023-04-23T01:52:46.522Z,8.25
2023-04-23T01:57:39.781Z,7.95
2023-04-23T02:02:34.470Z,8.65
2023-04-23T02:07:27.740Z,8.65
2023-04-23T02:12:21.111Z,10.60
2023-04-23T02:17:14.392Z,9.23
2023-04-23T02:22:09.512Z,9.80
2023-04-23T02:27:03.610Z,9.18
2023-04-23T02:31:56.925Z,9.73
2023-04-23T02:36:50.213Z,10.40
2023-04-23T02:41:44.857Z,10.23
2023-04-23T02:46:38.556Z,8.32
2023-04-23T02:51:32.247Z,9.20
2023-04-23T02:56:25.948Z,8.73
2023-04-23T03:01:21.383Z,8.95
2023-04-23T03:06:14.787Z,8.20
2023-04-23T03:11:07.974Z,7.70
2023-04-23T03:16:01.274Z,7.38
2023-04-23T03:20:56.521Z,7.88
2023-04-23T03:25:50.028Z,7.88
2023-04-23T03:30:43.452Z,7.53
2023-04-23T03:35:36.825Z,7.20
2023-04-23T03:40:36.002Z,8.07
2023-04-23T03:45:32.278Z,8.13
2023-04-23T03:50:26.286Z,7.82
2023-04-23T03:55:33.518Z,8.95
2023-04-23T04:00:28.536Z,8.65
2023-04-23T04:05:21.883Z,9.75
2023-04-23T04:10:15.199Z,8.88
2023-04-23T04:15:10.420Z,9.52
2023-04-23T04:20:05.336Z,8.90
2023-04-23T04:24:59.364Z,9.45
2023-04-23T04:29:53.028Z,8.73
2023-04-23T04:34:47.137Z,9.82
2023-04-23T04:39:41.946Z,11.25
2023-04-23T04:44:37.584Z,10.55
2023-04-23T04:49:31.186Z,10.85
2023-04-23T04:54:24.366Z,11.32
2023-04-23T04:59:19.156Z,11.55
2023-04-23T05:04:12.798Z,10.95
2023-04-23T05:09:06.419Z,10.90
2023-04-23T05:13:59.925Z,13.52
2023-04-23T05:18:54.626Z,11.57
2023-04-23T05:23:48.650Z,7.53
2023-04-23T05:28:42.238Z,7.18
2023-04-23T05:33:46.358Z,7.57
2023-04-23T05:38:45.760Z,7.47
2023-04-23T05:43:39.061Z,6.60
2023-04-23T05:48:32.440Z,5.88
2023-04-23T05:53:26.980Z,6.57
2023-04-23T05:58:22.659Z,6.32
2023-04-23T06:03:16.838Z,6.75
2023-04-23T06:08:10.474Z,7.20
2023-04-23T06:13:03.916Z,7.80
2023-04-23T06:18:00.989Z,7.07
2023-04-23T06:22:54.472Z,6.90
2023-04-23T06:27:49.547Z,6.90
2023-04-23T06:32:47.772Z,6.57
2023-04-23T06:37:42.239Z,7.05
2023-04-23T06:42:35.476Z,6.50
2023-04-23T06:47:49.278Z,6.57
2023-04-23T06:52:44.385Z,6.32
2023-04-23T06:57:39.448Z,6.68
2023-04-23T07:02:33.028Z,5.60
2023-04-23T07:07:26.387Z,4.15
2023-04-23T07:12:21.391Z,4.63
2023-04-23T07:17:15.540Z,4.80
2023-04-23T07:22:08.684Z,5.32
2023-04-23T07:27:02.184Z,5.13
2023-04-23T07:31:56.812Z,4.95
2023-04-23T07:36:50.220Z,4.55
2023-04-23T07:41:43.566Z,4.30
2023-04-23T07:46:36.803Z,4.82
2023-04-23T07:51:31.965Z,5.15
2023-04-23T07:56:25.802Z,4.57
2023-04-23T08:01:21.860Z,4.20
2023-04-23T08:06:15.172Z,4.25
2023-04-23T08:11:11.164Z,4.35
2023-04-23T08:16:04.402Z,4.90
2023-04-23T08:20:57.699Z,4.72
2023-04-23T08:25:50.916Z,4.00
2023-04-23T08:30:45.586Z,4.53
2023-04-23T08:35:38.866Z,4.10
2023-04-23T08:40:34.220Z,4.78
2023-04-23T08:45:27.385Z,4.50
2023-04-23T08:50:22.004Z,4.40
2023-04-23T08:55:16.124Z,4.22
2023-04-23T09:00:11.767Z,4.05
2023-04-23T09:05:16.614Z,4.05
2023-04-23T09:10:15.460Z,4.63
2023-04-23T09:15:12.883Z,4.43
2023-04-23T09:20:11.000Z,4.50
2023-04-23T09:25:05.731Z,3.63
2023-04-23T09:30:05.283Z,3.92
2023-04-23T09:34:58.627Z,4.18
2023-04-23T09:39:54.762Z,4.30
2023-04-23T09:44:59.733Z,4.30
2023-04-23T09:49:53.174Z,4.32
2023-04-23T09:54:47.542Z,3.88
2023-04-23T10:04:41.995Z,4.55
2023-04-23T10:09:36.178Z,4.13
2023-04-23T10:14:30.960Z,4.15
2023-04-23T10:19:25.944Z,4.20
2023-04-23T10:24:22.171Z,4.18
2023-04-23T10:29:17.421Z,4.80
2023-04-23T10:34:12.113Z,4.68
2023-04-23T10:39:09.388Z,4.47
2023-04-23T10:44:05.050Z,4.40
2023-04-23T10:49:08.077Z,4.00
2023-04-23T10:54:01.347Z,3.60
2023-04-23T10:58:54.629Z,3.75
2023-04-23T11:03:49.354Z,4.22
2023-04-23T11:08:54.221Z,4.40
2023-04-23T11:13:55.209Z,4.10
2023-04-23T11:19:03.886Z,4.72
2023-04-23T11:23:59.116Z,4.50
2023-04-23T11:28:54.973Z,4.60
2023-04-23T11:33:48.176Z,3.97
2023-04-23T11:38:48.978Z,4.55
2023-04-23T11:43:43.780Z,4.28
2023-04-23T11:48:37.611Z,4.28
2023-04-23T11:53:30.682Z,4.30
2023-04-23T11:58:25.386Z,4.25
2023-04-23T12:03:18.665Z,4.30
2023-04-23T12:08:13.267Z,3.78
2023-04-23T12:13:06.507Z,3.80
2023-04-23T12:18:11.948Z,4.00
2023-04-23T12:23:06.609Z,3.53
2023-04-23T12:28:01.183Z,3.70
2023-04-23T12:33:01.394Z,4.00
2023-04-23T12:37:56.134Z,3.83
2023-04-23T12:42:51.461Z,3.97
2023-04-23T12:47:44.739Z,4.07
2023-04-23T12:52:40.611Z,4.00
2023-04-23T12:57:35.088Z,4.00
2023-04-23T13:02:28.351Z,3.75
2023-04-23T13:07:21.890Z,3.22
2023-04-23T13:12:15.024Z,3.85
2023-04-23T13:17:12.268Z,3.15
2023-04-23T13:22:07.620Z,3.53
2023-04-23T13:27:03.639Z,3.83
2023-04-23T13:31:57.389Z,2.97
2023-04-23T13:36:52.540Z,4.13
2023-04-23T13:41:49.482Z,4.18
2023-04-23T13:46:47.734Z,3.70
2023-04-23T13:51:45.051Z,3.58
2023-04-23T13:56:39.746Z,3.15
2023-04-23T14:01:33.373Z,4.20
2023-04-23T14:06:28.994Z,3.63
2023-04-23T14:11:24.638Z,3.60
2023-04-23T14:16:19.494Z,3.53
2023-04-23T14:21:14.934Z,3.63
2023-04-23T14:26:17.584Z,4.47
2023-04-23T14:31:10.827Z,4.10
2023-04-23T14:36:07.754Z,3.70
2023-04-23T14:41:01.597Z,3.17
2023-04-23T14:45:54.715Z,3.67
2023-04-23T14:50:48.106Z,3.40
2023-04-23T14:55:43.483Z,3.80
2023-04-23T15:00:36.866Z,3.35
2023-04-23T15:05:30.288Z,3.88
2023-04-23T15:10:23.644Z,3.67
2023-04-23T15:15:41.177Z,3.88
2023-04-23T15:20:39.295Z,3.75
2023-04-23T15:25:33.306Z,4.00
2023-04-23T15:30:28.525Z,4.10
2023-04-23T15:35:21.633Z,4.22
2023-04-23T15:40:14.861Z,3.72
2023-04-23T15:45:10.253Z,3.80
2023-04-23T15:50:05.426Z,4.45
2023-04-23T15:54:59.655Z,3.92
2023-04-23T15:59:56.746Z,4.70
2023-04-23T16:04:50.990Z,4.47
2023-04-23T16:09:45.666Z,4.10
2023-04-23T16:14:38.919Z,4.78
2023-04-23T16:19:32.076Z,4.30
2023-04-23T16:24:26.618Z,3.70
2023-04-23T16:29:22.483Z,4.38
2023-04-23T16:34:19.208Z,4.47
2023-04-23T16:39:12.440Z,4.60
2023-04-23T16:44:05.626Z,5.07
2023-04-23T16:49:00.366Z,4.75
2023-04-23T16:53:53.844Z,4.28
2023-04-23T16:58:47.436Z,4.88
2023-04-23T17:03:41.147Z,5.45
2023-04-23T17:08:38.512Z,4.88
2023-04-23T17:13:35.368Z,4.72
2023-04-23T17:18:28.528Z,5.10
2023-04-23T17:23:21.734Z,4.82
2023-04-23T17:28:18.440Z,4.57
2023-04-23T17:33:17.100Z,5.00
2023-04-23T17:38:11.262Z,4.97
2023-04-23T17:43:07.119Z,4.78
2023-04-23T17:48:03.177Z,4.57
2023-04-23T17:52:58.122Z,4.72
2023-04-23T17:57:52.026Z,5.35
2023-04-23T18:02:45.381Z,5.30
2023-04-23T18:07:41.173Z,5.28
2023-04-23T18:12:35.765Z,5.13
2023-04-23T18:17:29.168Z,5.20
2023-04-23T18:22:22.945Z,6.50
2023-04-23T18:27:20.620Z,5.10
2023-04-23T18:32:20.916Z,5.18
2023-04-23T18:37:37.952Z,5.10
2023-04-23T18:42:32.652Z,5.32
2023-04-23T18:47:32.260Z,5.18
2023-04-23T18:52:25.493Z,5.15
2023-04-23T18:57:18.801Z,5.22
2023-04-23T19:02:21.389Z,4.90
2023-04-23T19:07:18.147Z,5.50
2023-04-23T19:12:17.243Z,4.88
2023-04-23T19:17:13.061Z,5.10
2023-04-23T19:22:07.616Z,5.05
2023-04-23T19:27:01.218Z,4.60
2023-04-23T19:31:55.191Z,5.15
2023-04-23T19:36:48.626Z,4.50
2023-04-23T19:41:43.265Z,4.80
2023-04-23T19:46:36.484Z,4.82
2023-04-23T19:51:35.577Z,5.50
2023-04-23T19:56:28.910Z,5.63
2023-04-23T20:01:23.860Z,4.53
2023-04-23T20:06:17.219Z,5.00
2023-04-23T20:11:10.647Z,4.70
2023-04-23T20:16:04.210Z,5.22
2023-04-23T20:21:00.377Z,4.65
2023-04-23T20:25:53.665Z,4.60
2023-04-23T20:30:47.297Z,5.18
2023-04-23T20:35:41.993Z,4.47
2023-04-23T20:40:36.683Z,4.85
2023-04-23T20:45:29.899Z,4.70
2023-04-23T20:50:25.611Z,4.82
2023-04-23T20:55:19.114Z,4.57
2023-04-23T21:00:15.016Z,4.60
2023-04-23T21:05:09.235Z,4.90
2023-04-23T21:10:02.495Z,4.57
2023-04-23T21:14:56.507Z,5.95
2023-04-23T21:19:53.960Z,4.85
2023-04-23T21:24:47.551Z,4.88
2023-04-23T21:29:41.440Z,5.28
2023-04-23T21:34:34.856Z,5.00
2023-04-23T21:39:31.812Z,5.00
2023-04-23T21:44:25.244Z,5.00
2023-04-23T21:49:18.524Z,4.93
2023-04-23T21:54:17.483Z,4.97
2023-04-23T21:59:12.225Z,4.88
2023-04-23T22:04:05.765Z,5.20
2023-04-23T22:08:59.214Z,4.85
2023-04-23T22:13:55.942Z,4.88
2023-04-23T22:18:50.648Z,4.70
2023-04-23T22:23:43.840Z,5.00
2023-04-23T22:28:37.046Z,4.88
2023-04-23T22:33:30.213Z,4.10
2023-04-23T22:38:27.823Z,5.28
2023-04-23T22:43:23.264Z,4.75
2023-04-23T22:48:16.504Z,5.47
2023-04-23T22:53:09.812Z,4.50
2023-04-23T22:58:04.411Z,5.07
2023-04-23T23:02:57.716Z,4.90
2023-04-23T23:07:52.142Z,4.57
2023-04-23T23:12:47.701Z,5.18
2023-04-23T23:17:42.377Z,5.10
2023-04-23T23:22:35.829Z,4.93
2023-04-23T23:27:29.035Z,4.95
2023-04-23T23:32:22.969Z,5.68
2023-04-23T23:37:17.718Z,4.93
2023-04-23T23:42:11.397Z,4.82
2023-04-23T23:47:04.782Z,4.82
2023-04-23T23:51:58.757Z,5.20
2023-04-23T23:56:53.329Z,5.18
